createdAt,value
2023-04-05T00:01:13.791Z,8.17
2023-04-05T00:03:42.801Z,7.17
2023-04-05T00:06:13.402Z,7.77
2023-04-05T00:08:41.861Z,8.07
2023-04-05T00:11:09.939Z,7.83
2023-04-05T00:13:39.342Z,6.50
2023-04-05T00:16:08.514Z,7.03
2023-04-05T00:18:38.379Z,7.20
2023-04-05T00:21:06.941Z,7.67
2023-04-05T00:23:38.576Z,6.40
2023-04-05T00:26:06.946Z,6.73
2023-04-05T00:28:35.762Z,5.83
2023-04-05T00:31:06.387Z,8.20
2023-04-05T00:33:34.492Z,6.67
2023-04-05T00:36:12.789Z,6.17
2023-04-05T00:38:41.209Z,5.70
2023-04-05T00:41:09.302Z,4.37
2023-04-05T00:43:37.863Z,6.37
2023-04-05T00:46:07.613Z,7.77
2023-04-05T00:48:35.773Z,5.83
2023-04-05T00:51:03.891Z,5.50
2023-04-05T00:53:32.221Z,6.83
2023-04-05T00:56:01.403Z,6.30
2023-04-05T00:58:29.464Z,5.33
2023-04-05T01:01:02.728Z,6.00
2023-04-05T01:03:34.532Z,6.83
2023-04-05T01:06:09.917Z,6.77
2023-04-05T01:08:41.807Z,4.97
2023-04-05T01:11:10.481Z,3.83
2023-04-05T01:13:38.587Z,10.73
2023-04-05T01:16:07.059Z,3.40
2023-04-05T01:18:38.020Z,4.00
2023-04-05T01:21:20.987Z,4.07
2023-04-05T01:23:55.182Z,4.60
2023-04-05T01:26:34.971Z,6.37
2023-04-05T01:29:39.293Z,5.27
2023-04-05T01:32:13.184Z,5.10
2023-04-05T01:34:45.232Z,4.27
2023-04-05T01:37:14.179Z,6.67
2023-04-05T01:39:42.672Z,5.43
2023-04-05T01:42:11.300Z,3.70
2023-04-05T01:44:41.644Z,5.10
2023-04-05T01:47:11.109Z,5.67
2023-04-05T01:49:39.338Z,5.03
2023-04-05T01:52:08.850Z,3.83
2023-04-05T01:54:37.072Z,3.27
2023-04-05T01:57:05.710Z,4.37
2023-04-05T01:59:33.797Z,4.80
2023-04-05T02:02:01.954Z,4.13
2023-04-05T02:04:31.400Z,3.10
2023-04-05T02:07:00.648Z,4.47
2023-04-05T02:09:28.698Z,5.00
2023-04-05T02:11:57.378Z,5.13
2023-04-05T02:14:25.933Z,3.03
2023-04-05T02:16:55.852Z,3.87
2023-04-05T02:19:26.553Z,4.10
2023-04-05T02:21:56.488Z,4.10
2023-04-05T02:24:24.618Z,3.80
2023-04-05T02:26:52.737Z,5.30
2023-04-05T02:29:20.854Z,3.97
2023-04-05T02:31:50.548Z,6.10
2023-04-05T02:34:19.040Z,4.97
2023-04-05T02:36:47.371Z,2.97
2023-04-05T02:39:16.906Z,4.03
2023-04-05T02:41:45.073Z,3.93
2023-04-05T02:44:13.669Z,3.10
2023-04-05T02:46:42.174Z,4.03
2023-04-05T02:49:10.901Z,4.63
2023-04-05T02:51:39.470Z,7.73
2023-04-05T02:54:11.008Z,2.63
2023-04-05T02:56:42.926Z,2.97
2023-04-05T02:59:15.801Z,4.53
2023-04-05T03:01:45.683Z,3.53
2023-04-05T03:04:23.069Z,2.67
2023-04-05T03:06:52.286Z,3.83
2023-04-05T03:09:22.496Z,7.47
2023-04-05T03:11:56.441Z,4.00
2023-04-05T03:14:24.848Z,3.37
2023-04-05T03:16:54.031Z,4.87
2023-04-05T03:19:37.696Z,2.77
2023-04-05T03:22:15.060Z,3.73
2023-04-05T03:24:43.710Z,5.00
2023-04-05T03:27:16.179Z,2.43
2023-04-05T03:29:58.537Z,3.20
2023-04-05T03:32:26.974Z,2.93
2023-04-05T03:35:06.353Z,3.17
2023-04-05T03:37:36.070Z,3.93
2023-04-05T03:40:10.637Z,2.73
2023-04-05T03:42:40.166Z,3.50
2023-04-05T03:45:09.540Z,5.30
2023-04-05T03:47:37.718Z,5.37
2023-04-05T03:50:09.427Z,3.00
2023-04-05T03:52:37.443Z,2.50
2023-04-05T03:55:07.314Z,2.37
2023-04-05T03:57:38.303Z,3.37
2023-04-05T04:00:20.931Z,2.63
2023-04-05T04:03:05.157Z,3.80
2023-04-05T04:05:39.349Z,5.10
2023-04-05T04:08:09.667Z,3.77
2023-04-05T04:10:39.195Z,5.20
2023-04-05T04:13:19.313Z,6.60
2023-04-05T04:15:55.132Z,4.33
2023-04-05T04:18:47.421Z,3.10
2023-04-05T04:21:51.089Z,4.13
2023-04-05T04:24:46.248Z,5.33
2023-04-05T04:27:46.902Z,3.57
2023-04-05T04:30:15.838Z,2.80
2023-04-05T04:33:09.501Z,3.30
2023-04-05T04:36:14.065Z,4.03
2023-04-05T04:39:20.111Z,3.73
2023-04-05T04:42:12.060Z,3.83
2023-04-05T04:45:03.179Z,2.57
2023-04-05T04:47:52.981Z,7.73
2023-04-05T04:50:39.319Z,4.53
2023-04-05T04:53:07.898Z,7.50
2023-04-05T04:55:36.215Z,5.70
2023-04-05T04:58:09.852Z,4.43
2023-04-05T05:00:39.944Z,5.80
2023-04-05T05:03:11.390Z,7.07
2023-04-05T05:05:44.807Z,10.73
2023-04-05T05:08:12.980Z,11.37
2023-04-05T05:10:42.734Z,7.97
2023-04-05T05:13:11.719Z,16.93
2023-04-05T05:15:40.974Z,10.97
2023-04-05T05:18:10.398Z,9.60
2023-04-05T05:20:38.696Z,9.83
2023-04-05T05:23:08.345Z,10.43
2023-04-05T05:25:38.400Z,10.37
2023-04-05T05:28:06.816Z,9.73
2023-04-05T05:30:34.908Z,9.27
2023-04-05T05:33:03.083Z,13.23
2023-04-05T05:35:31.130Z,16.03
2023-04-05T05:37:59.186Z,12.70
2023-04-05T05:40:28.662Z,11.33
2023-04-05T05:42:56.731Z,9.43
2023-04-05T05:45:25.336Z,8.80
2023-04-05T05:47:53.443Z,21.17
2023-04-05T05:50:21.789Z,13.90
2023-04-05T05:52:49.870Z,10.63
2023-04-05T05:55:18.027Z,12.57
2023-04-05T05:57:47.470Z,9.53
2023-04-05T06:00:16.997Z,12.77
2023-04-05T06:02:45.343Z,11.93
2023-04-05T06:05:13.517Z,12.77
2023-04-05T06:07:41.550Z,13.97
2023-04-05T06:10:10.242Z,14.33
2023-04-05T06:12:38.276Z,14.20
2023-04-05T06:15:09.738Z,9.07
2023-04-05T06:17:42.214Z,13.80
2023-04-05T06:20:11.629Z,11.60
2023-04-05T06:22:40.348Z,12.20
2023-04-05T06:25:09.447Z,9.93
2023-04-05T06:27:37.883Z,8.03
2023-04-05T06:30:06.824Z,7.93
2023-04-05T06:32:36.526Z,12.03
2023-04-05T06:35:05.079Z,12.57
2023-04-05T06:37:33.166Z,12.23
2023-04-05T06:40:01.239Z,10.43
2023-04-05T06:42:29.626Z,10.87
2023-04-05T06:45:04.326Z,6.00
2023-04-05T06:47:36.362Z,8.20
2023-04-05T06:50:04.537Z,9.77
2023-04-05T06:52:33.593Z,7.53
2023-04-05T06:55:02.321Z,7.57
2023-04-05T06:57:30.344Z,8.97
2023-04-05T06:59:58.634Z,6.40
2023-04-05T07:02:26.983Z,10.37
2023-04-05T07:05:03.807Z,11.47
2023-04-05T07:07:31.852Z,11.83
2023-04-05T07:10:00.533Z,9.93
2023-04-05T07:12:28.686Z,6.30
2023-04-05T07:14:56.787Z,7.37
2023-04-05T07:17:25.627Z,4.93
2023-04-05T07:19:53.745Z,3.90
2023-04-05T07:22:23.506Z,7.37
2023-04-05T07:24:53.047Z,4.53
2023-04-05T07:27:21.226Z,8.50
2023-04-05T07:29:49.529Z,9.30
2023-04-05T07:32:17.626Z,20.80
2023-04-05T07:34:45.874Z,10.20
2023-04-05T07:37:14.434Z,5.73
2023-04-05T07:39:43.861Z,9.53
2023-04-05T07:42:11.904Z,10.40
2023-04-05T07:44:39.940Z,4.60
2023-04-05T07:47:07.945Z,4.87
2023-04-05T07:49:37.967Z,5.80
2023-04-05T07:52:06.579Z,3.77
2023-04-05T07:54:34.965Z,7.57
2023-04-05T07:57:04.451Z,3.67
2023-04-05T07:59:32.702Z,3.03
2023-04-05T08:02:08.210Z,2.97
2023-04-05T08:04:42.164Z,5.87
2023-04-05T08:07:10.353Z,4.97
2023-04-05T08:09:38.388Z,3.97
2023-04-05T08:12:08.406Z,2.87
2023-04-05T08:14:37.035Z,5.50
2023-04-05T08:17:05.462Z,3.17
2023-04-05T08:19:33.538Z,2.20
2023-04-05T08:22:01.652Z,2.30
2023-04-05T08:24:29.741Z,3.17
2023-04-05T08:26:57.806Z,6.10
2023-04-05T08:29:27.553Z,2.67
2023-04-05T08:31:57.812Z,3.33
2023-04-05T08:34:25.947Z,3.03
2023-04-05T08:36:54.024Z,2.37
2023-04-05T08:39:22.255Z,3.67
2023-04-05T08:41:51.751Z,4.17
2023-04-05T08:44:20.244Z,3.27
2023-04-05T08:46:49.700Z,2.87
2023-04-05T08:49:17.710Z,3.10
2023-04-05T08:51:45.790Z,2.63
2023-04-05T08:54:14.475Z,2.83
2023-04-05T08:56:42.512Z,3.03
2023-04-05T08:59:11.934Z,7.40
2023-04-05T09:01:42.792Z,2.50
2023-04-05T09:04:15.537Z,2.30
2023-04-05T09:06:43.572Z,3.27
2023-04-05T09:09:11.648Z,3.57
2023-04-05T09:11:40.036Z,4.13
2023-04-05T09:14:08.335Z,5.20
2023-04-05T09:16:38.495Z,4.63
2023-04-05T09:19:06.642Z,2.93
2023-04-05T09:22:00.623Z,4.40
2023-04-05T09:24:33.500Z,2.73
2023-04-05T09:27:06.316Z,2.70
2023-04-05T09:29:34.420Z,4.27
2023-04-05T09:32:05.641Z,3.90
2023-04-05T09:34:34.053Z,2.67
2023-04-05T09:37:03.550Z,2.70
2023-04-05T09:39:32.641Z,3.37
2023-04-05T09:42:06.332Z,3.27
2023-04-05T09:44:50.054Z,3.43
2023-04-05T09:47:18.451Z,2.83
2023-04-05T09:49:46.566Z,2.90
2023-04-05T09:52:24.240Z,3.10
2023-04-05T09:54:53.140Z,3.53
2023-04-05T09:57:21.208Z,3.50
2023-04-05T09:59:49.266Z,3.43
2023-04-05T10:02:17.421Z,3.60
2023-04-05T10:04:46.660Z,3.37
2023-04-05T10:07:15.963Z,2.47
2023-04-05T10:09:46.235Z,4.67
2023-04-05T10:12:15.644Z,4.03
2023-04-05T10:14:43.769Z,3.10
2023-04-05T10:17:13.947Z,4.43
2023-04-05T10:20:03.430Z,4.43
2023-04-05T10:22:33.910Z,3.70
2023-04-05T10:25:06.670Z,4.43
2023-04-05T10:27:36.629Z,2.63
2023-04-05T10:30:06.440Z,2.63
2023-04-05T10:32:41.996Z,2.70
2023-04-05T10:35:11.369Z,4.33
2023-04-05T10:37:48.350Z,4.87
2023-04-05T10:40:17.843Z,3.27
2023-04-05T10:42:45.973Z,2.80
2023-04-05T10:45:15.674Z,3.07
2023-04-05T10:47:46.090Z,2.70
2023-04-05T10:50:21.596Z,3.30
2023-04-05T10:52:49.830Z,2.33
2023-04-05T10:55:20.016Z,3.53
2023-04-05T10:57:48.138Z,3.57
2023-04-05T11:00:17.013Z,2.87
2023-04-05T11:02:45.207Z,4.60
2023-04-05T11:05:31.332Z,4.10
2023-04-05T11:08:03.792Z,4.33
2023-04-05T11:10:33.589Z,4.10
2023-04-05T11:13:09.046Z,3.60
2023-04-05T11:15:37.261Z,3.23
2023-04-05T11:18:06.765Z,2.87
2023-04-05T11:20:45.320Z,2.50
2023-04-05T11:23:15.729Z,5.03
2023-04-05T11:25:49.946Z,5.23
2023-04-05T11:28:25.288Z,3.23
2023-04-05T11:30:56.602Z,2.53
2023-04-05T11:33:37.903Z,3.20
2023-04-05T11:36:06.312Z,3.70
2023-04-05T11:38:34.465Z,2.67
2023-04-05T11:41:17.574Z,4.10
2023-04-05T11:43:47.516Z,3.83
2023-04-05T11:46:16.212Z,2.60
2023-04-05T11:48:44.323Z,2.67
2023-04-05T11:51:12.430Z,4.53
2023-04-05T11:53:40.495Z,3.53
2023-04-05T11:56:12.887Z,3.93
2023-04-05T11:58:41.018Z,3.50
2023-04-05T12:01:09.242Z,3.07
2023-04-05T12:03:37.658Z,3.20
2023-04-05T12:06:06.583Z,2.70
2023-04-05T12:08:42.168Z,2.43
2023-04-05T12:11:12.293Z,2.37
2023-04-05T12:13:40.448Z,5.47
2023-04-05T12:16:09.747Z,3.27
2023-04-05T12:18:38.232Z,3.37
2023-04-05T12:21:08.030Z,2.80
2023-04-05T12:23:37.245Z,3.47
2023-04-05T12:26:07.444Z,3.43
2023-04-05T12:28:52.881Z,4.03
2023-04-05T12:31:39.112Z,3.53
2023-04-05T12:34:07.309Z,2.67
2023-04-05T12:36:35.622Z,4.07
2023-04-05T12:39:07.568Z,4.03
2023-04-05T12:41:36.710Z,3.83
2023-04-05T12:44:07.845Z,3.00
2023-04-05T12:46:42.742Z,2.27
2023-04-05T12:49:12.356Z,4.47
2023-04-05T12:51:43.306Z,2.50
2023-04-05T12:54:13.397Z,3.83
2023-04-05T12:56:41.579Z,4.57
2023-04-05T12:59:11.237Z,2.07
2023-04-05T13:01:39.838Z,3.43
2023-04-05T13:04:15.455Z,6.17
2023-04-05T13:06:47.581Z,4.27
2023-04-05T13:09:15.996Z,4.77
2023-04-05T13:11:44.106Z,3.63
2023-04-05T13:14:13.600Z,3.97
2023-04-05T13:16:42.177Z,3.50
2023-04-05T13:19:10.270Z,3.70
2023-04-05T13:21:38.277Z,3.87
2023-04-05T13:24:06.516Z,4.07
2023-04-05T13:26:34.559Z,3.03
2023-04-05T13:29:03.642Z,4.53
2023-04-05T13:31:33.931Z,6.70
2023-04-05T13:34:02.112Z,4.10
2023-04-05T13:36:30.191Z,3.40
2023-04-05T13:38:58.234Z,2.70
2023-04-05T13:41:26.489Z,3.63
2023-04-05T13:43:55.280Z,4.70
2023-04-05T13:46:23.404Z,2.90
2023-04-05T13:48:52.844Z,3.93
2023-04-05T13:51:20.931Z,2.90
2023-04-05T13:53:48.980Z,3.17
2023-04-05T13:56:17.163Z,5.33
2023-04-05T13:58:45.341Z,3.47
2023-04-05T14:01:13.764Z,2.83
2023-04-05T14:03:41.936Z,3.47
2023-04-05T14:06:11.703Z,3.73
2023-04-05T14:08:39.779Z,2.77
2023-04-05T14:11:08.291Z,2.67
2023-04-05T14:13:36.431Z,3.77
2023-04-05T14:16:04.648Z,4.03
2023-04-05T14:18:32.824Z,6.43
2023-04-05T14:21:01.017Z,4.87
2023-04-05T14:23:30.942Z,5.63
2023-04-05T14:25:59.170Z,3.03
2023-04-05T14:28:27.359Z,4.30
2023-04-05T14:30:55.688Z,2.40
2023-04-05T14:33:24.488Z,3.30
2023-04-05T14:35:54.089Z,2.43
2023-04-05T14:38:22.774Z,3.77
2023-04-05T14:40:52.353Z,3.17
2023-04-05T14:43:20.542Z,2.60
2023-04-05T14:45:48.846Z,3.13
2023-04-05T14:48:17.164Z,4.20
2023-04-05T14:50:45.435Z,3.43
2023-04-05T14:53:14.082Z,2.60
2023-04-05T14:55:42.212Z,4.57
2023-04-05T14:58:14.254Z,4.07
2023-04-05T15:00:42.981Z,2.67
2023-04-05T15:03:11.924Z,3.47
2023-04-05T15:05:40.198Z,3.00
2023-04-05T15:08:08.365Z,3.63
2023-04-05T15:10:36.541Z,4.57
2023-04-05T15:13:04.771Z,2.97
2023-04-05T15:15:34.359Z,2.70
2023-04-05T15:18:03.489Z,4.33
2023-04-05T15:20:32.225Z,2.80
2023-04-05T15:23:00.589Z,3.20
2023-04-05T15:25:28.801Z,3.03
2023-04-05T15:27:59.719Z,5.87
2023-04-05T15:30:29.939Z,5.87
2023-04-05T15:32:59.953Z,4.57
2023-04-05T15:35:28.305Z,3.80
2023-04-05T15:37:56.524Z,5.63
2023-04-05T15:40:24.747Z,4.37
2023-04-05T15:42:52.882Z,2.50
2023-04-05T15:45:21.479Z,4.13
2023-04-05T15:47:49.728Z,5.83
2023-04-05T15:50:20.482Z,6.30
2023-04-05T15:52:48.883Z,5.63
2023-04-05T15:55:16.985Z,3.10
2023-04-05T15:57:45.177Z,3.40
2023-04-05T16:00:14.591Z,4.63
2023-04-05T16:02:43.359Z,6.03
2023-04-05T16:05:11.693Z,3.70
2023-04-05T16:07:41.343Z,5.73
2023-04-05T16:10:10.986Z,5.03
2023-04-05T16:12:39.476Z,3.50
2023-04-05T16:15:08.534Z,3.63
2023-04-05T16:17:36.833Z,4.90
2023-04-05T16:20:05.503Z,3.20
2023-04-05T16:22:33.640Z,5.47
2023-04-05T16:25:03.668Z,5.23
2023-04-05T16:27:33.691Z,3.60
2023-04-05T16:30:01.868Z,3.37
2023-04-05T16:32:30.033Z,3.73
2023-04-05T16:34:58.194Z,4.67
2023-04-05T16:37:26.423Z,2.80
2023-04-05T16:39:55.056Z,3.13
2023-04-05T16:42:24.647Z,5.30
2023-04-05T16:44:52.805Z,4.20
2023-04-05T16:47:21.232Z,6.57
2023-04-05T16:49:49.368Z,4.37
2023-04-05T16:52:17.921Z,4.47
2023-04-05T16:54:46.079Z,3.77
2023-04-05T16:57:14.433Z,5.70
2023-04-05T16:59:44.191Z,3.40
2023-04-05T17:02:12.394Z,6.07
2023-04-05T17:04:40.507Z,3.97
2023-04-05T17:07:09.185Z,4.40
2023-04-05T17:09:37.323Z,3.17
2023-04-05T17:12:05.781Z,4.40
2023-04-05T17:14:33.950Z,4.20
2023-04-05T17:17:03.531Z,6.57
2023-04-05T17:19:32.218Z,3.47
2023-04-05T17:22:00.396Z,6.47
2023-04-05T17:24:29.328Z,5.87
2023-04-05T17:26:57.572Z,3.40
2023-04-05T17:29:25.936Z,4.70
2023-04-05T17:31:54.457Z,3.80
2023-04-05T17:34:24.001Z,3.20
2023-04-05T17:36:52.853Z,3.93
2023-04-05T17:39:21.044Z,3.10
2023-04-05T17:41:50.925Z,3.27
2023-04-05T17:44:19.924Z,2.60
2023-04-05T17:46:57.350Z,5.33
2023-04-05T17:49:36.512Z,3.63
2023-04-05T17:52:04.843Z,3.00
2023-04-05T17:54:37.084Z,4.40
2023-04-05T17:57:05.507Z,5.67
2023-04-05T17:59:34.239Z,5.83
2023-04-05T18:02:02.521Z,4.47
2023-04-05T18:04:30.902Z,3.30
2023-04-05T18:07:00.768Z,6.27
2023-04-05T18:09:29.148Z,2.97
2023-04-05T18:11:57.636Z,5.80
2023-04-05T18:14:26.348Z,3.87
2023-04-05T18:16:54.481Z,3.10
2023-04-05T18:19:22.710Z,6.47
2023-04-05T18:21:50.854Z,4.77
2023-04-05T18:24:20.696Z,3.80
2023-04-05T18:26:48.872Z,4.70
2023-04-05T18:29:17.105Z,5.77
2023-04-05T18:31:45.380Z,5.70
2023-04-05T18:34:13.563Z,3.23
2023-04-05T18:36:41.822Z,6.30
2023-04-05T18:39:10.055Z,3.87
2023-04-05T18:41:40.205Z,4.90
2023-04-05T18:44:09.819Z,5.07
2023-04-05T18:46:38.679Z,2.97
2023-04-05T18:49:07.025Z,3.63
2023-04-05T18:51:35.419Z,5.90
2023-04-05T18:54:04.034Z,4.40
2023-04-05T18:56:32.614Z,6.50
2023-04-05T18:59:02.270Z,6.73
2023-04-05T19:01:30.601Z,7.73
2023-04-05T19:04:00.487Z,5.87
2023-04-05T19:06:29.443Z,5.07
2023-04-05T19:08:57.570Z,8.43
2023-04-05T19:11:25.803Z,5.50
2023-04-05T19:13:54.539Z,5.80
2023-04-05T19:16:24.064Z,5.00
2023-04-05T19:18:52.875Z,5.30
2023-04-05T19:21:21.184Z,7.53
2023-04-05T19:23:49.951Z,5.63
2023-04-05T19:26:19.493Z,6.20
2023-04-05T19:28:48.849Z,6.27
2023-04-05T19:31:17.061Z,7.50
2023-04-05T19:33:46.684Z,5.17
2023-04-05T19:36:14.967Z,5.93
2023-04-05T19:38:43.440Z,5.07
2023-04-05T19:41:11.629Z,5.13
2023-04-05T19:43:41.170Z,7.87
2023-04-05T19:46:09.923Z,4.73
2023-04-05T19:48:39.308Z,5.60
2023-04-05T19:51:09.595Z,4.87
2023-04-05T19:53:42.633Z,4.57
2023-04-05T19:56:12.702Z,5.30
2023-04-05T19:58:40.980Z,5.60
2023-04-05T20:01:09.148Z,4.77
2023-04-05T20:03:38.127Z,5.03
2023-04-05T20:06:09.440Z,4.63
2023-04-05T20:08:38.744Z,4.97
2023-04-05T20:11:12.708Z,5.73
2023-04-05T20:13:43.887Z,5.50
2023-04-05T20:16:13.204Z,7.10
2023-04-05T20:18:42.389Z,4.90
2023-04-05T20:21:12.108Z,4.17
2023-04-05T20:23:40.438Z,7.83
2023-04-05T20:26:08.616Z,5.77
2023-04-05T20:28:38.822Z,6.30
2023-04-05T20:31:08.994Z,5.93
2023-04-05T20:33:48.352Z,5.33
2023-04-05T20:36:20.054Z,5.13
2023-04-05T20:38:48.527Z,4.80
2023-04-05T20:41:18.119Z,4.73
2023-04-05T20:43:46.439Z,6.13
2023-04-05T20:46:14.745Z,4.70
2023-04-05T20:48:43.072Z,6.17
2023-04-05T20:51:14.410Z,6.03
2023-04-05T20:53:44.144Z,6.80
2023-04-05T20:56:12.605Z,9.93
2023-04-05T20:58:41.520Z,8.77
2023-04-05T21:01:09.719Z,9.87
2023-04-05T21:03:39.370Z,9.20
2023-04-05T21:06:08.506Z,7.10
2023-04-05T21:08:37.174Z,9.07
2023-04-05T21:11:06.865Z,5.33
2023-04-05T21:13:35.797Z,4.77
2023-04-05T21:16:03.987Z,4.53
2023-04-05T21:18:32.224Z,3.67
2023-04-05T21:21:00.989Z,5.30
2023-04-05T21:23:30.114Z,5.07
2023-04-05T21:25:59.750Z,6.20
2023-04-05T21:28:29.290Z,8.87
2023-04-05T21:30:57.497Z,9.73
2023-04-05T21:33:26.097Z,9.73
2023-04-05T21:35:54.236Z,11.23
2023-04-05T21:38:22.473Z,5.80
2023-04-05T21:40:51.185Z,8.20
2023-04-05T21:43:19.339Z,6.37
2023-04-05T21:45:48.987Z,4.83
2023-04-05T21:48:17.177Z,4.37
2023-04-05T21:50:45.381Z,3.17
2023-04-05T21:53:14.721Z,4.60
2023-04-05T21:55:42.939Z,4.13
2023-04-05T21:58:11.113Z,8.57
2023-04-05T22:00:39.378Z,4.70
2023-04-05T22:03:08.982Z,3.37
2023-04-05T22:05:38.788Z,4.50
2023-04-05T22:08:08.686Z,4.20
2023-04-05T22:10:37.740Z,4.40
2023-04-05T22:13:06.029Z,5.13
2023-04-05T22:15:34.355Z,3.80
2023-04-05T22:18:02.998Z,4.80
2023-04-05T22:20:32.596Z,5.07
2023-04-05T22:23:01.233Z,6.03
2023-04-05T22:25:29.492Z,6.10
2023-04-05T22:28:00.151Z,4.27
2023-04-05T22:30:28.950Z,5.40
2023-04-05T22:32:57.379Z,4.47
2023-04-05T22:35:25.966Z,5.87
2023-04-05T22:37:55.653Z,7.10
2023-04-05T22:40:27.004Z,7.60
2023-04-05T22:42:55.266Z,4.07
2023-04-05T22:45:23.639Z,4.47
2023-04-05T22:47:52.243Z,6.70
2023-04-05T22:50:20.482Z,3.87
2023-04-05T22:52:48.603Z,9.90
2023-04-05T22:55:18.295Z,7.73
2023-04-05T22:57:46.580Z,9.53
2023-04-05T23:00:15.779Z,5.17
2023-04-05T23:02:44.076Z,5.20
2023-04-05T23:05:13.145Z,4.10
2023-04-05T23:07:41.395Z,9.50
2023-04-05T23:10:10.240Z,6.50
2023-04-05T23:12:39.811Z,4.80
2023-04-05T23:15:09.000Z,3.87
2023-04-05T23:17:37.624Z,5.13
2023-04-05T23:20:06.947Z,5.33
2023-04-05T23:22:36.094Z,9.27
2023-04-05T23:25:04.502Z,5.50
2023-04-05T23:27:32.662Z,5.27
2023-04-05T23:30:02.666Z,5.60
2023-04-05T23:32:30.984Z,5.87
2023-04-05T23:34:59.128Z,5.67
2023-04-05T23:37:27.326Z,6.43
2023-04-05T23:39:55.629Z,4.87
2023-04-05T23:42:23.751Z,8.07
2023-04-05T23:44:52.295Z,6.00
2023-04-05T23:47:21.868Z,5.70
2023-04-05T23:49:50.112Z,6.80
2023-04-05T23:52:18.294Z,5.23
2023-04-05T23:54:46.489Z,9.27
2023-04-05T23:57:15.122Z,6.20
2023-04-05T23:59:43.391Z,5.93
